sensor_id;sensor_type;location;lat;lon;timestamp;P1;durP1;ratioP1;P2;durP2;ratioP2
27357;SDS011;14831;50.474;7.616;2022-11-15T00:04:21;2.5;;;2.3;;
27357;SDS011;14831;50.474;7.616;2022-11-15T00:09:21;2.5;;;2.3;;
27357;SDS011;14831;50.474;7.616;2022-11-15T00:14:21;2.5;;;2.3;;
27357;SDS011;14831;50.474;7.616;2022-11-15T00:19:21;2.5;;;2.3;;
27357;SDS011;14831;50.474;7.616;2022-11-15T00:24:21;2.3;;;2.1;;
27357;SDS011;14831;50.474;7.616;2022-11-15T00:29:21;2.3;;;2.1;;
27357;SDS011;14831;50.474;7.616;2022-11-15T00:34:21;2.3;;;2.1;;
27357;SDS011;14831;50.474;7.616;2022-11-15T00:39:21;2.3;;;2.1;;
27357;SDS011;14831;50.474;7.616;2022-11-15T00:44:21;2.3;;;2.1;;
27357;SDS011;14831;50.474;7.616;2022-11-15T00:49:21;2.3;;;2.1;;
27357;SDS011;14831;50.474;7.616;2022-11-15T00:54:21;2.0;;;1.9;;
27357;SDS011;14831;50.474;7.616;2022-11-15T00:59:21;2.0;;;1.9;;
27357;SDS011;14831;50.474;7.616;2022-11-15T01:04:21;2.0;;;1.9;;
27357;SDS011;14831;50.474;7.616;2022-11-15T01:09:21;2.0;;;1.9;;
27357;SDS011;14831;50.474;7.616;2022-11-15T01:14:21;2.0;;;1.9;;
27357;SDS011;14831;50.474;7.616;2022-11-15T01:19:21;2.0;;;1.9;;
27357;SDS011;14831;50.474;7.616;2022-11-15T01:24:21;2.1;;;1.9;;
27357;SDS011;14831;50.474;7.616;2022-11-15T01:29:21;2.1;;;1.9;;
27357;SDS011;14831;50.474;7.616;2022-11-15T01:34:21;2.1;;;1.9;;
27357;SDS011;14831;50.474;7.616;2022-11-15T01:39:21;2.1;;;1.9;;
27357;SDS011;14831;50.474;7.616;2022-11-15T01:44:53;2.1;;;1.9;;
27357;SDS011;14831;50.474;7.616;2022-11-15T01:49:22;2.1;;;1.9;;
27357;SDS011;14831;50.474;7.616;2022-11-15T01:54:23;1.9;;;1.8;;
27357;SDS011;14831;50.474;7.616;2022-11-15T01:59:22;1.9;;;1.8;;
27357;SDS011;14831;50.474;7.616;2022-11-15T02:04:25;1.9;;;1.8;;
27357;SDS011;14831;50.474;7.616;2022-11-15T02:09:21;1.9;;;1.8;;
27357;SDS011;14831;50.474;7.616;2022-11-15T02:14:23;1.9;;;1.8;;
27357;SDS011;14831;50.474;7.616;2022-11-15T02:19:39;1.9;;;1.8;;
27357;SDS011;14831;50.474;7.616;2022-11-15T02:24:36;1.7;;;1.6;;
27357;SDS011;14831;50.474;7.616;2022-11-15T02:29:31;1.7;;;1.6;;
27357;SDS011;14831;50.474;7.616;2022-11-15T02:34:28;1.7;;;1.6;;
27357;SDS011;14831;50.474;7.616;2022-11-15T02:39:28;1.7;;;1.6;;
27357;SDS011;14831;50.474;7.616;2022-11-15T02:44:24;1.7;;;1.6;;
27357;SDS011;14831;50.474;7.616;2022-11-15T02:49:22;1.7;;;1.6;;
27357;SDS011;14831;50.474;7.616;2022-11-15T02:54:24;1.7;;;1.6;;
27357;SDS011;14831;50.474;7.616;2022-11-15T03:00:08;1.7;;;1.6;;
27357;SDS011;14831;50.474;7.616;2022-11-15T03:04:27;1.7;;;1.6;;
27357;SDS011;14831;50.474;7.616;2022-11-15T03:09:29;1.7;;;1.6;;
27357;SDS011;14831;50.474;7.616;2022-11-15T03:14:24;1.7;;;1.6;;
27357;SDS011;14831;50.474;7.616;2022-11-15T03:19:28;1.7;;;1.6;;
27357;SDS011;14831;50.474;7.616;2022-11-15T03:24:23;1.6;;;1.5;;
27357;SDS011;14831;50.474;7.616;2022-11-15T03:29:24;1.6;;;1.5;;
27357;SDS011;14831;50.474;7.616;2022-11-15T03:34:27;1.6;;;1.5;;
27357;SDS011;14831;50.474;7.616;2022-11-15T03:39:21;1.6;;;1.5;;
27357;SDS011;14831;50.474;7.616;2022-11-15T03:44:34;1.6;;;1.5;;
27357;SDS011;14831;50.474;7.616;2022-11-15T03:49:27;1.6;;;1.5;;
27357;SDS011;14831;50.474;7.616;2022-11-15T03:54:21;1.4;;;1.3;;
27357;SDS011;14831;50.474;7.616;2022-11-15T03:59:21;1.4;;;1.3;;
27357;SDS011;14831;50.474;7.616;2022-11-15T04:04:21;1.4;;;1.3;;
27357;SDS011;14831;50.474;7.616;2022-11-15T04:09:21;1.4;;;1.3;;
27357;SDS011;14831;50.474;7.616;2022-11-15T04:14:21;1.4;;;1.3;;
27357;SDS011;14831;50.474;7.616;2022-11-15T04:19:21;1.4;;;1.3;;
27357;SDS011;14831;50.474;7.616;2022-11-15T04:24:21;1.4;;;1.3;;
27357;SDS011;14831;50.474;7.616;2022-11-15T04:29:21;1.4;;;1.3;;
27357;SDS011;14831;50.474;7.616;2022-11-15T04:34:21;1.4;;;1.3;;
27357;SDS011;14831;50.474;7.616;2022-11-15T04:39:21;1.4;;;1.3;;
27357;SDS011;14831;50.474;7.616;2022-11-15T04:44:21;1.4;;;1.3;;
27357;SDS011;14831;50.474;7.616;2022-11-15T04:49:21;1.4;;;1.3;;
27357;SDS011;14831;50.474;7.616;2022-11-15T04:54:21;1.4;;;1.3;;
27357;SDS011;14831;50.474;7.616;2022-11-15T04:59:21;1.4;;;1.3;;
27357;SDS011;14831;50.474;7.616;2022-11-15T05:04:21;1.4;;;1.3;;
27357;SDS011;14831;50.474;7.616;2022-11-15T05:09:21;1.4;;;1.3;;
27357;SDS011;14831;50.474;7.616;2022-11-15T05:14:21;1.4;;;1.3;;
27357;SDS011;14831;50.474;7.616;2022-11-15T05:19:21;1.4;;;1.3;;
27357;SDS011;14831;50.474;7.616;2022-11-15T05:24:21;1.2;;;1.1;;
27357;SDS011;14831;50.474;7.616;2022-11-15T05:29:21;1.2;;;1.1;;
27357;SDS011;14831;50.474;7.616;2022-11-15T05:34:21;1.2;;;1.1;;
27357;SDS011;14831;50.474;7.616;2022-11-15T05:39:21;1.2;;;1.1;;
27357;SDS011;14831;50.474;7.616;2022-11-15T05:44:22;1.2;;;1.1;;
27357;SDS011;14831;50.474;7.616;2022-11-15T05:49:24;1.2;;;1.1;;
27357;SDS011;14831;50.474;7.616;2022-11-15T05:54:22;1.3;;;1.2;;
27357;SDS011;14831;50.474;7.616;2022-11-15T05:59:21;1.3;;;1.2;;
27357;SDS011;14831;50.474;7.616;2022-11-15T06:04:21;1.3;;;1.2;;
27357;SDS011;14831;50.474;7.616;2022-11-15T06:09:21;1.3;;;1.2;;
27357;SDS011;14831;50.474;7.616;2022-11-15T06:14:21;1.3;;;1.2;;
27357;SDS011;14831;50.474;7.616;2022-11-15T06:19:21;1.3;;;1.2;;
27357;SDS011;14831;50.474;7.616;2022-11-15T06:24:21;0.8;;;0.8;;
27357;SDS011;14831;50.474;7.616;2022-11-15T06:29:21;0.8;;;0.8;;
27357;SDS011;14831;50.474;7.616;2022-11-15T06:34:21;0.8;;;0.8;;
27357;SDS011;14831;50.474;7.616;2022-11-15T06:39:21;0.8;;;0.8;;
27357;SDS011;14831;50.474;7.616;2022-11-15T06:44:21;0.8;;;0.8;;
27357;SDS011;14831;50.474;7.616;2022-11-15T06:49:21;0.8;;;0.8;;
27357;SDS011;14831;50.474;7.616;2022-11-15T06:54:21;1.5;;;1.4;;
27357;SDS011;14831;50.474;7.616;2022-11-15T06:59:21;1.5;;;1.4;;
27357;SDS011;14831;50.474;7.616;2022-11-15T07:04:21;1.5;;;1.4;;
27357;SDS011;14831;50.474;7.616;2022-11-15T07:09:21;1.5;;;1.4;;
27357;SDS011;14831;50.474;7.616;2022-11-15T07:14:21;1.5;;;1.4;;
27357;SDS011;14831;50.474;7.616;2022-11-15T07:19:21;1.5;;;1.4;;
27357;SDS011;14831;50.474;7.616;2022-11-15T07:24:21;1.6;;;1.3;;
27357;SDS011;14831;50.474;7.616;2022-11-15T07:29:21;1.6;;;1.3;;
27357;SDS011;14831;50.474;7.616;2022-11-15T07:34:21;1.6;;;1.3;;
27357;SDS011;14831;50.474;7.616;2022-11-15T07:39:21;1.6;;;1.3;;
27357;SDS011;14831;50.474;7.616;2022-11-15T07:44:21;1.6;;;1.3;;
27357;SDS011;14831;50.474;7.616;2022-11-15T07:49:21;1.6;;;1.3;;
27357;SDS011;14831;50.474;7.616;2022-11-15T07:54:21;3.8;;;1.3;;
27357;SDS011;14831;50.474;7.616;2022-11-15T07:59:21;3.8;;;1.3;;
27357;SDS011;14831;50.474;7.616;2022-11-15T08:04:21;3.8;;;1.3;;
27357;SDS011;14831;50.474;7.616;2022-11-15T08:09:21;3.8;;;1.3;;
27357;SDS011;14831;50.474;7.616;2022-11-15T08:14:21;3.8;;;1.3;;
27357;SDS011;14831;50.474;7.616;2022-11-15T08:19:21;3.8;;;1.3;;
27357;SDS011;14831;50.474;7.616;2022-11-15T08:24:21;4.2;;;1.3;;
27357;SDS011;14831;50.474;7.616;2022-11-15T08:29:21;4.2;;;1.3;;
27357;SDS011;14831;50.474;7.616;2022-11-15T08:34:21;4.2;;;1.3;;
27357;SDS011;14831;50.474;7.616;2022-11-15T08:39:21;4.2;;;1.3;;
27357;SDS011;14831;50.474;7.616;2022-11-15T08:44:21;4.2;;;1.3;;
27357;SDS011;14831;50.474;7.616;2022-11-15T08:49:22;4.2;;;1.3;;
27357;SDS011;14831;50.474;7.616;2022-11-15T08:54:21;1.7;;;1.2;;
27357;SDS011;14831;50.474;7.616;2022-11-15T08:59:22;1.7;;;1.2;;
27357;SDS011;14831;50.474;7.616;2022-11-15T09:04:21;1.7;;;1.2;;
27357;SDS011;14831;50.474;7.616;2022-11-15T09:09:21;1.7;;;1.2;;
27357;SDS011;14831;50.474;7.616;2022-11-15T09:14:21;1.7;;;1.2;;
27357;SDS011;14831;50.474;7.616;2022-11-15T09:19:21;1.7;;;1.2;;
27357;SDS011;14831;50.474;7.616;2022-11-15T09:24:21;1.6;;;1.5;;
27357;SDS011;14831;50.474;7.616;2022-11-15T09:29:21;1.6;;;1.5;;
27357;SDS011;14831;50.474;7.616;2022-11-15T09:34:21;1.6;;;1.5;;
27357;SDS011;14831;50.474;7.616;2022-11-15T09:39:21;1.6;;;1.5;;
27357;SDS011;14831;50.474;7.616;2022-11-15T09:44:34;1.6;;;1.5;;
27357;SDS011;14831;50.474;7.616;2022-11-15T09:49:22;1.6;;;1.5;;
27357;SDS011;14831;50.474;7.616;2022-11-15T09:54:27;1.8;;;1.2;;
27357;SDS011;14831;50.474;7.616;2022-11-15T09:59:31;1.8;;;1.2;;
27357;SDS011;14831;50.474;7.616;2022-11-15T10:04:22;1.8;;;1.2;;
27357;SDS011;14831;50.474;7.616;2022-11-15T10:09:25;1.8;;;1.2;;
27357;SDS011;14831;50.474;7.616;2022-11-15T10:14:23;1.8;;;1.2;;
27357;SDS011;14831;50.474;7.616;2022-11-15T10:19:26;1.8;;;1.2;;
27357;SDS011;14831;50.474;7.616;2022-11-15T10:24:25;1.0;;;1.0;;
27357;SDS011;14831;50.474;7.616;2022-11-15T10:29:23;1.0;;;1.0;;
27357;SDS011;14831;50.474;7.616;2022-11-15T10:34:23;1.0;;;1.0;;
27357;SDS011;14831;50.474;7.616;2022-11-15T10:39:21;1.0;;;1.0;;
27357;SDS011;14831;50.474;7.616;2022-11-15T10:44:24;1.0;;;1.0;;
27357;SDS011;14831;50.474;7.616;2022-11-15T10:49:23;1.0;;;1.0;;
27357;SDS011;14831;50.474;7.616;2022-11-15T10:54:24;1.1;;;1.1;;
27357;SDS011;14831;50.474;7.616;2022-11-15T10:59:25;1.1;;;1.1;;
27357;SDS011;14831;50.474;7.616;2022-11-15T11:04:21;1.1;;;1.1;;
27357;SDS011;14831;50.474;7.616;2022-11-15T11:09:27;1.1;;;1.1;;
27357;SDS011;14831;50.474;7.616;2022-11-15T11:14:22;1.1;;;1.1;;
27357;SDS011;14831;50.474;7.616;2022-11-15T11:19:39;1.1;;;1.1;;
27357;SDS011;14831;50.474;7.616;2022-11-15T11:24:32;3.1;;;1.8;;
27357;SDS011;14831;50.474;7.616;2022-11-15T11:29:32;3.1;;;1.8;;
27357;SDS011;14831;50.474;7.616;2022-11-15T11:34:33;3.1;;;1.8;;
27357;SDS011;14831;50.474;7.616;2022-11-15T11:39:28;3.1;;;1.8;;
27357;SDS011;14831;50.474;7.616;2022-11-15T11:44:30;3.1;;;1.8;;
27357;SDS011;14831;50.474;7.616;2022-11-15T11:49:28;3.1;;;1.8;;
27357;SDS011;14831;50.474;7.616;2022-11-15T11:54:38;2.0;;;1.3;;
27357;SDS011;14831;50.474;7.616;2022-11-15T11:59:28;2.0;;;1.3;;
27357;SDS011;14831;50.474;7.616;2022-11-15T12:04:27;2.0;;;1.3;;
27357;SDS011;14831;50.474;7.616;2022-11-15T12:09:29;2.0;;;1.3;;
27357;SDS011;14831;50.474;7.616;2022-11-15T12:14:29;2.0;;;1.3;;
27357;SDS011;14831;50.474;7.616;2022-11-15T12:19:21;2.0;;;1.3;;
27357;SDS011;14831;50.474;7.616;2022-11-15T12:24:25;1.7;;;1.4;;
27357;SDS011;14831;50.474;7.616;2022-11-15T12:29:27;1.7;;;1.4;;
27357;SDS011;14831;50.474;7.616;2022-11-15T12:34:36;1.7;;;1.4;;
27357;SDS011;14831;50.474;7.616;2022-11-15T12:40:05;1.7;;;1.4;;
27357;SDS011;14831;50.474;7.616;2022-11-15T12:44:57;1.7;;;1.4;;
27357;SDS011;14831;50.474;7.616;2022-11-15T12:49:43;1.7;;;1.4;;
27357;SDS011;14831;50.474;7.616;2022-11-15T12:54:54;1.4;;;1.3;;
27357;SDS011;14831;50.474;7.616;2022-11-15T12:59:48;1.4;;;1.3;;
27357;SDS011;14831;50.474;7.616;2022-11-15T13:04:23;1.4;;;1.3;;
27357;SDS011;14831;50.474;7.616;2022-11-15T13:09:54;1.4;;;1.3;;
27357;SDS011;14831;50.474;7.616;2022-11-15T13:14:53;1.4;;;1.3;;
27357;SDS011;14831;50.474;7.616;2022-11-15T13:19:22;1.4;;;1.3;;
27357;SDS011;14831;50.474;7.616;2022-11-15T13:24:21;1.6;;;1.3;;
27357;SDS011;14831;50.474;7.616;2022-11-15T13:29:21;1.6;;;1.3;;
27357;SDS011;14831;50.474;7.616;2022-11-15T13:34:26;1.6;;;1.3;;
27357;SDS011;14831;50.474;7.616;2022-11-15T13:39:26;1.6;;;1.3;;
27357;SDS011;14831;50.474;7.616;2022-11-15T13:44:23;1.6;;;1.3;;
27357;SDS011;14831;50.474;7.616;2022-11-15T13:49:29;1.6;;;1.3;;
27357;SDS011;14831;50.474;7.616;2022-11-15T13:54:25;1.4;;;1.3;;
27357;SDS011;14831;50.474;7.616;2022-11-15T13:59:25;1.4;;;1.3;;
27357;SDS011;14831;50.474;7.616;2022-11-15T14:04:22;1.4;;;1.3;;
27357;SDS011;14831;50.474;7.616;2022-11-15T14:09:30;1.4;;;1.3;;
27357;SDS011;14831;50.474;7.616;2022-11-15T14:14:22;1.4;;;1.3;;
27357;SDS011;14831;50.474;7.616;2022-11-15T14:19:35;1.4;;;1.3;;
27357;SDS011;14831;50.474;7.616;2022-11-15T14:24:21;3.3;;;2.1;;
27357;SDS011;14831;50.474;7.616;2022-11-15T14:29:22;3.3;;;2.1;;
27357;SDS011;14831;50.474;7.616;2022-11-15T14:34:21;3.3;;;2.1;;
27357;SDS011;14831;50.474;7.616;2022-11-15T14:39:21;3.3;;;2.1;;
27357;SDS011;14831;50.474;7.616;2022-11-15T14:44:21;3.3;;;2.1;;
27357;SDS011;14831;50.474;7.616;2022-11-15T14:49:21;3.3;;;2.1;;
27357;SDS011;14831;50.474;7.616;2022-11-15T14:54:21;3.8;;;1.7;;
27357;SDS011;14831;50.474;7.616;2022-11-15T14:59:21;3.8;;;1.7;;
27357;SDS011;14831;50.474;7.616;2022-11-15T15:04:21;3.8;;;1.7;;
27357;SDS011;14831;50.474;7.616;2022-11-15T15:09:21;3.8;;;1.7;;
27357;SDS011;14831;50.474;7.616;2022-11-15T15:14:22;3.8;;;1.7;;
27357;SDS011;14831;50.474;7.616;2022-11-15T15:19:21;3.8;;;1.7;;
27357;SDS011;14831;50.474;7.616;2022-11-15T15:24:21;5.2;;;1.4;;
27357;SDS011;14831;50.474;7.616;2022-11-15T15:29:21;5.2;;;1.4;;
27357;SDS011;14831;50.474;7.616;2022-11-15T15:34:21;5.2;;;1.4;;
27357;SDS011;14831;50.474;7.616;2022-11-15T15:39:21;5.2;;;1.4;;
27357;SDS011;14831;50.474;7.616;2022-11-15T15:44:23;5.2;;;1.4;;
27357;SDS011;14831;50.474;7.616;2022-11-15T15:49:21;5.2;;;1.4;;
27357;SDS011;14831;50.474;7.616;2022-11-15T15:54:21;2.0;;;1.2;;
27357;SDS011;14831;50.474;7.616;2022-11-15T15:59:21;2.0;;;1.2;;
27357;SDS011;14831;50.474;7.616;2022-11-15T16:04:21;2.0;;;1.2;;
27357;SDS011;14831;50.474;7.616;2022-11-15T16:09:21;2.0;;;1.2;;
27357;SDS011;14831;50.474;7.616;2022-11-15T16:14:21;2.0;;;1.2;;
27357;SDS011;14831;50.474;7.616;2022-11-15T16:19:21;2.0;;;1.2;;
27357;SDS011;14831;50.474;7.616;2022-11-15T16:24:21;1.4;;;1.2;;
27357;SDS011;14831;50.474;7.616;2022-11-15T16:29:21;1.4;;;1.2;;
27357;SDS011;14831;50.474;7.616;2022-11-15T16:34:22;1.4;;;1.2;;
27357;SDS011;14831;50.474;7.616;2022-11-15T16:39:21;1.4;;;1.2;;
27357;SDS011;14831;50.474;7.616;2022-11-15T16:44:21;1.4;;;1.2;;
27357;SDS011;14831;50.474;7.616;2022-11-15T16:49:21;1.4;;;1.2;;
27357;SDS011;14831;50.474;7.616;2022-11-15T16:54:21;1.5;;;1.2;;
27357;SDS011;14831;50.474;7.616;2022-11-15T16:59:21;1.5;;;1.2;;
27357;SDS011;14831;50.474;7.616;2022-11-15T17:04:21;1.5;;;1.2;;
27357;SDS011;14831;50.474;7.616;2022-11-15T17:09:22;1.5;;;1.2;;
27357;SDS011;14831;50.474;7.616;2022-11-15T17:14:21;1.5;;;1.2;;
27357;SDS011;14831;50.474;7.616;2022-11-15T17:19:21;1.5;;;1.2;;
27357;SDS011;14831;50.474;7.616;2022-11-15T17:24:21;2.6;;;1.1;;
27357;SDS011;14831;50.474;7.616;2022-11-15T17:29:21;2.6;;;1.1;;
27357;SDS011;14831;50.474;7.616;2022-11-15T17:34:21;2.6;;;1.1;;
27357;SDS011;14831;50.474;7.616;2022-11-15T17:39:21;2.6;;;1.1;;
27357;SDS011;14831;50.474;7.616;2022-11-15T17:44:21;2.6;;;1.1;;
27357;SDS011;14831;50.474;7.616;2022-11-15T17:49:21;2.6;;;1.1;;
27357;SDS011;14831;50.474;7.616;2022-11-15T17:54:21;1.2;;;1.1;;
27357;SDS011;14831;50.474;7.616;2022-11-15T17:59:21;1.2;;;1.1;;
27357;SDS011;14831;50.474;7.616;2022-11-15T18:04:21;1.2;;;1.1;;
27357;SDS011;14831;50.474;7.616;2022-11-15T18:09:21;1.2;;;1.1;;
27357;SDS011;14831;50.474;7.616;2022-11-15T18:14:21;1.2;;;1.1;;
27357;SDS011;14831;50.474;7.616;2022-11-15T18:19:21;1.2;;;1.1;;
27357;SDS011;14831;50.474;7.616;2022-11-15T18:24:21;2.2;;;1.2;;
27357;SDS011;14831;50.474;7.616;2022-11-15T18:29:21;2.2;;;1.2;;
27357;SDS011;14831;50.474;7.616;2022-11-15T18:34:22;2.2;;;1.2;;
27357;SDS011;14831;50.474;7.616;2022-11-15T18:39:21;2.2;;;1.2;;
27357;SDS011;14831;50.474;7.616;2022-11-15T18:44:21;2.2;;;1.2;;
27357;SDS011;14831;50.474;7.616;2022-11-15T18:49:21;2.2;;;1.2;;
27357;SDS011;14831;50.474;7.616;2022-11-15T18:54:21;4.1;;;2.6;;
27357;SDS011;14831;50.474;7.616;2022-11-15T18:59:21;4.1;;;2.6;;
27357;SDS011;14831;50.474;7.616;2022-11-15T19:04:21;4.1;;;2.6;;
27357;SDS011;14831;50.474;7.616;2022-11-15T19:09:21;4.1;;;2.6;;
27357;SDS011;14831;50.474;7.616;2022-11-15T19:14:21;4.1;;;2.6;;
27357;SDS011;14831;50.474;7.616;2022-11-15T19:19:23;4.1;;;2.6;;
27357;SDS011;14831;50.474;7.616;2022-11-15T19:24:21;4.3;;;2.1;;
27357;SDS011;14831;50.474;7.616;2022-11-15T19:29:21;4.3;;;2.1;;
27357;SDS011;14831;50.474;7.616;2022-11-15T19:34:21;4.3;;;2.1;;
27357;SDS011;14831;50.474;7.616;2022-11-15T19:39:21;4.3;;;2.1;;
27357;SDS011;14831;50.474;7.616;2022-11-15T19:44:21;4.3;;;2.1;;
27357;SDS011;14831;50.474;7.616;2022-11-15T19:49:21;4.3;;;2.1;;
27357;SDS011;14831;50.474;7.616;2022-11-15T19:54:21;3.2;;;1.8;;
27357;SDS011;14831;50.474;7.616;2022-11-15T19:59:21;3.2;;;1.8;;
27357;SDS011;14831;50.474;7.616;2022-11-15T20:04:21;3.2;;;1.8;;
27357;SDS011;14831;50.474;7.616;2022-11-15T20:09:21;3.2;;;1.8;;
27357;SDS011;14831;50.474;7.616;2022-11-15T20:14:21;3.2;;;1.8;;
27357;SDS011;14831;50.474;7.616;2022-11-15T20:19:21;3.2;;;1.8;;
27357;SDS011;14831;50.474;7.616;2022-11-15T20:24:21;2.3;;;1.5;;
27357;SDS011;14831;50.474;7.616;2022-11-15T20:29:21;2.3;;;1.5;;
27357;SDS011;14831;50.474;7.616;2022-11-15T20:34:21;2.3;;;1.5;;
27357;SDS011;14831;50.474;7.616;2022-11-15T20:39:21;2.3;;;1.5;;
27357;SDS011;14831;50.474;7.616;2022-11-15T20:44:21;2.3;;;1.5;;
27357;SDS011;14831;50.474;7.616;2022-11-15T20:49:21;2.3;;;1.5;;
27357;SDS011;14831;50.474;7.616;2022-11-15T20:54:21;2.6;;;1.3;;
27357;SDS011;14831;50.474;7.616;2022-11-15T20:59:21;2.6;;;1.3;;
27357;SDS011;14831;50.474;7.616;2022-11-15T21:04:21;2.6;;;1.3;;
27357;SDS011;14831;50.474;7.616;2022-11-15T21:09:21;2.6;;;1.3;;
27357;SDS011;14831;50.474;7.616;2022-11-15T21:14:21;2.6;;;1.3;;
27357;SDS011;14831;50.474;7.616;2022-11-15T21:19:21;2.6;;;1.3;;
27357;SDS011;14831;50.474;7.616;2022-11-15T21:24:21;2.2;;;1.4;;
27357;SDS011;14831;50.474;7.616;2022-11-15T21:29:21;2.2;;;1.4;;
27357;SDS011;14831;50.474;7.616;2022-11-15T21:34:21;2.2;;;1.4;;
27357;SDS011;14831;50.474;7.616;2022-11-15T21:39:21;2.2;;;1.4;;
27357;SDS011;14831;50.474;7.616;2022-11-15T21:44:21;2.2;;;1.4;;
27357;SDS011;14831;50.474;7.616;2022-11-15T21:49:21;2.2;;;1.4;;
27357;SDS011;14831;50.474;7.616;2022-11-15T21:54:21;2.0;;;1.3;;
27357;SDS011;14831;50.474;7.616;2022-11-15T21:59:21;2.0;;;1.3;;
27357;SDS011;14831;50.474;7.616;2022-11-15T22:04:21;2.0;;;1.3;;
27357;SDS011;14831;50.474;7.616;2022-11-15T22:09:21;2.0;;;1.3;;
27357;SDS011;14831;50.474;7.616;2022-11-15T22:14:21;2.0;;;1.3;;
27357;SDS011;14831;50.474;7.616;2022-11-15T22:19:21;2.0;;;1.3;;
27357;SDS011;14831;50.474;7.616;2022-11-15T22:24:21;1.4;;;1.2;;
27357;SDS011;14831;50.474;7.616;2022-11-15T22:29:21;1.4;;;1.2;;
27357;SDS011;14831;50.474;7.616;2022-11-15T22:34:21;1.4;;;1.2;;
27357;SDS011;14831;50.474;7.616;2022-11-15T22:39:21;1.4;;;1.2;;
27357;SDS011;14831;50.474;7.616;2022-11-15T22:44:21;1.4;;;1.2;;
27357;SDS011;14831;50.474;7.616;2022-11-15T22:49:21;1.4;;;1.2;;
27357;SDS011;14831;50.474;7.616;2022-11-15T22:54:21;1.5;;;1.2;;
27357;SDS011;14831;50.474;7.616;2022-11-15T22:59:21;1.5;;;1.2;;
27357;SDS011;14831;50.474;7.616;2022-11-15T23:04:21;1.5;;;1.2;;
27357;SDS011;14831;50.474;7.616;2022-11-15T23:09:21;1.5;;;1.2;;
27357;SDS011;14831;50.474;7.616;2022-11-15T23:14:21;1.5;;;1.2;;
27357;SDS011;14831;50.474;7.616;2022-11-15T23:19:21;1.5;;;1.2;;
27357;SDS011;14831;50.474;7.616;2022-11-15T23:24:21;1.3;;;1.1;;
27357;SDS011;14831;50.474;7.616;2022-11-15T23:29:22;1.3;;;1.1;;
27357;SDS011;14831;50.474;7.616;2022-11-15T23:34:21;1.3;;;1.1;;
27357;SDS011;14831;50.474;7.616;2022-11-15T23:39:21;1.3;;;1.1;;
27357;SDS011;14831;50.474;7.616;2022-11-15T23:44:22;1.3;;;1.1;;
27357;SDS011;14831;50.474;7.616;2022-11-15T23:49:21;1.3;;;1.1;;
27357;SDS011;14831;50.474;7.616;2022-11-15T23:54:21;1.6;;;1.4;;
27357;SDS011;14831;50.474;7.616;2022-11-15T23:59:21;1.6;;;1.4;;
